createdAt,value
2023-02-16T00:00:23.266Z,100977.66
2023-02-16T00:02:50.180Z,100972.28
2023-02-16T00:05:33.128Z,100963.34
2023-02-16T00:08:01.647Z,100976.91
2023-02-16T00:10:34.658Z,100972.28
2023-02-16T00:13:20.937Z,100981.31
2023-02-16T00:15:47.976Z,100967.16
2023-02-16T00:18:21.609Z,100960.06
2023-02-16T00:20:49.812Z,100962.91
2023-02-16T00:23:16.871Z,100968.00
2023-02-16T00:25:43.756Z,100965.44
2023-02-16T00:28:18.762Z,100963.75
2023-02-16T00:30:46.005Z,100968.69
2023-02-16T00:33:19.412Z,100970.09
2023-02-16T00:35:46.395Z,100962.31
2023-02-16T00:38:15.273Z,100964.47
2023-02-16T00:40:43.177Z,100956.41
2023-02-16T00:43:24.785Z,100964.47
2023-02-16T00:45:52.431Z,100948.44
2023-02-16T00:48:19.485Z,100947.59
2023-02-16T00:50:46.442Z,100958.94
2023-02-16T00:53:13.768Z,100949.03
2023-02-16T00:55:43.269Z,100959.78
2023-02-16T00:58:27.112Z,100968.84
2023-02-16T01:00:58.959Z,100954.41
2023-02-16T01:03:29.073Z,100949.88
2023-02-16T01:06:14.746Z,100941.41
2023-02-16T01:09:01.307Z,100939.81
2023-02-16T01:11:29.166Z,100930.66
2023-02-16T01:13:57.417Z,100929.63
2023-02-16T01:16:31.270Z,100919.44
2023-02-16T01:18:58.157Z,100915.75
2023-02-16T01:21:24.936Z,100910.38
2023-02-16T01:23:51.822Z,100897.63
2023-02-16T01:26:20.203Z,100902.31
2023-02-16T01:28:48.558Z,100894.66
2023-02-16T01:31:16.642Z,100892.97
2023-02-16T01:33:43.928Z,100892.66
2023-02-16T01:36:25.317Z,100886.16
2023-02-16T01:38:52.362Z,100884.06
2023-02-16T01:41:28.712Z,100876.38
2023-02-16T01:44:13.693Z,100881.38
2023-02-16T01:47:21.957Z,100872.28
2023-02-16T01:49:48.777Z,100866.63
2023-02-16T01:52:36.472Z,100862.09
2023-02-16T01:55:14.536Z,100862.41
2023-02-16T01:57:48.456Z,100860.53
2023-02-16T02:00:47.607Z,100847.66
2023-02-16T02:03:41.517Z,100853.63
2023-02-16T02:06:21.512Z,100848.22
2023-02-16T02:08:54.772Z,100850.06
2023-02-16T02:11:34.036Z,100842.53
2023-02-16T02:14:10.000Z,100826.38
2023-02-16T02:16:37.015Z,100834.31
2023-02-16T02:19:04.744Z,100828.81
2023-02-16T02:22:19.310Z,100820.00
2023-02-16T02:24:55.370Z,100821.56
2023-02-16T02:27:27.542Z,100816.63
2023-02-16T02:30:41.202Z,100808.53
2023-02-16T02:33:07.968Z,100803.84
2023-02-16T02:36:20.190Z,100794.06
2023-02-16T02:39:35.536Z,100803.16
2023-02-16T02:42:22.256Z,100783.47
2023-02-16T02:44:52.067Z,100778.47
2023-02-16T02:47:19.075Z,100773.66
2023-02-16T02:49:54.549Z,100784.44
2023-02-16T02:52:22.856Z,100768.97
2023-02-16T02:55:08.949Z,100767.13
2023-02-16T02:58:01.593Z,100761.22
2023-02-16T03:00:48.028Z,100754.94
2023-02-16T03:03:27.808Z,100750.56
2023-02-16T03:06:07.537Z,100751.41
2023-02-16T03:08:39.745Z,100747.44
2023-02-16T03:11:38.275Z,100736.81
2023-02-16T03:14:27.488Z,100727.47
2023-02-16T03:17:20.513Z,100731.41
2023-02-16T03:20:09.155Z,100720.22
2023-02-16T03:22:56.510Z,100722.50
2023-02-16T03:25:45.870Z,100705.03
2023-02-16T03:28:32.557Z,100714.84
2023-02-16T03:31:02.021Z,100709.31
2023-02-16T03:33:29.756Z,100704.50
2023-02-16T03:35:58.403Z,100702.91
2023-02-16T03:38:25.970Z,100682.19
2023-02-16T03:40:53.488Z,100679.97
2023-02-16T03:43:25.020Z,100681.50
2023-02-16T03:45:52.743Z,100678.25
2023-02-16T03:48:19.908Z,100679.38
2023-02-16T03:50:46.697Z,100685.47
2023-02-16T03:53:13.544Z,100676.41
2023-02-16T03:55:45.615Z,100670.44
2023-02-16T03:58:19.008Z,100671.00
2023-02-16T04:00:45.976Z,100669.16
2023-02-16T04:03:13.687Z,100680.25
2023-02-16T04:05:41.475Z,100671.00
2023-02-16T04:08:09.724Z,100670.00
2023-02-16T04:10:38.414Z,100669.84
2023-02-16T04:13:05.271Z,100665.63
2023-02-16T04:15:32.815Z,100653.31
2023-02-16T04:18:00.043Z,100660.94
2023-02-16T04:20:32.849Z,100644.91
2023-02-16T04:23:00.336Z,100657.25
2023-02-16T04:25:28.112Z,100645.06
2023-02-16T04:27:55.932Z,100650.44
2023-02-16T04:30:26.990Z,100659.09
2023-02-16T04:32:57.371Z,100647.47
2023-02-16T04:35:24.174Z,100656.53
2023-02-16T04:37:50.933Z,100658.69
2023-02-16T04:40:18.859Z,100665.34
2023-02-16T04:42:46.586Z,100639.09
2023-02-16T04:45:14.431Z,100640.09
2023-02-16T04:47:41.549Z,100647.00
2023-02-16T04:50:09.868Z,100647.19
2023-02-16T04:52:37.674Z,100638.78
2023-02-16T04:55:05.970Z,100644.50
2023-02-16T04:57:32.963Z,100642.34
2023-02-16T04:59:59.763Z,100638.78
2023-02-16T05:02:26.664Z,100630.41
2023-02-16T05:04:53.511Z,100632.09
2023-02-16T05:07:20.324Z,100629.25
2023-02-16T05:09:47.170Z,100623.63
2023-02-16T05:12:32.446Z,100619.66
2023-02-16T05:14:59.227Z,100607.41
2023-02-16T05:17:27.141Z,100611.66
2023-02-16T05:19:58.460Z,100610.81
2023-02-16T05:22:26.402Z,100607.28
2023-02-16T05:24:53.224Z,100608.66
2023-02-16T05:27:29.601Z,100599.88
2023-02-16T05:29:56.847Z,100600.03
2023-02-16T05:32:24.706Z,100599.88
2023-02-16T05:34:51.627Z,100596.88
2023-02-16T05:37:19.509Z,100595.19
2023-02-16T05:39:46.308Z,100591.34
2023-02-16T05:42:13.537Z,100591.34
2023-02-16T05:44:40.827Z,100577.03
2023-02-16T05:47:07.798Z,100575.88
2023-02-16T05:49:34.851Z,100578.41
2023-02-16T05:52:01.919Z,100575.56
2023-02-16T05:54:28.801Z,100579.94
2023-02-16T05:56:56.072Z,100576.28
2023-02-16T05:59:23.487Z,100571.03
2023-02-16T06:01:52.215Z,100576.13
2023-02-16T06:04:20.895Z,100583.53
2023-02-16T06:06:48.453Z,100587.19
2023-02-16T06:09:15.453Z,100591.28
2023-02-16T06:11:42.957Z,100589.28
2023-02-16T06:14:17.051Z,100583.19
2023-02-16T06:16:49.774Z,100580.50
2023-02-16T06:19:18.760Z,100582.91
2023-02-16T06:21:46.718Z,100585.88
2023-02-16T06:24:14.343Z,100589.13
2023-02-16T06:26:44.160Z,100580.50
2023-02-16T06:29:11.520Z,100580.63
2023-02-16T06:31:38.490Z,100578.59
2023-02-16T06:34:05.894Z,100576.34
2023-02-16T06:36:34.193Z,100582.97
2023-02-16T06:39:01.092Z,100586.69
2023-02-16T06:41:40.550Z,100590.94
2023-02-16T06:44:13.840Z,100591.06
2023-02-16T06:46:43.165Z,100594.31
2023-02-16T06:49:20.628Z,100595.31
2023-02-16T06:51:49.763Z,100583.25
2023-02-16T06:54:17.217Z,100581.69
2023-02-16T06:56:44.148Z,100587.63
2023-02-16T06:59:12.951Z,100593.88
2023-02-16T07:01:39.816Z,100591.31
2023-02-16T07:04:06.650Z,100585.09
2023-02-16T07:06:33.764Z,100592.16
2023-02-16T07:09:00.620Z,100600.09
2023-02-16T07:11:27.919Z,100603.63
2023-02-16T07:13:54.995Z,100607.91
2023-02-16T07:16:21.887Z,100609.03
2023-02-16T07:18:49.125Z,100604.88
2023-02-16T07:21:16.338Z,100603.03
2023-02-16T07:23:43.693Z,100596.34
2023-02-16T07:26:10.662Z,100595.34
2023-02-16T07:28:37.563Z,100592.63
2023-02-16T07:31:13.836Z,100601.41
2023-02-16T07:33:41.170Z,100596.72
2023-02-16T07:36:10.089Z,100585.78
2023-02-16T07:38:37.523Z,100586.63
2023-02-16T07:41:08.695Z,100579.94
2023-02-16T07:43:37.480Z,100584.31
2023-02-16T07:46:05.580Z,100593.88
2023-02-16T07:48:32.581Z,100595.09
2023-02-16T07:50:59.876Z,100598.50
2023-02-16T07:53:26.720Z,100599.59
2023-02-16T07:55:53.892Z,100597.72
2023-02-16T07:58:29.708Z,100598.59
2023-02-16T08:01:09.699Z,100600.97
2023-02-16T08:03:37.182Z,100599.81
2023-02-16T08:06:05.391Z,100602.53
2023-02-16T08:08:33.256Z,100606.91
2023-02-16T08:11:00.395Z,100611.66
2023-02-16T08:13:27.348Z,100621.63
2023-02-16T08:15:54.154Z,100631.56
2023-02-16T08:18:20.954Z,100616.91
2023-02-16T08:21:03.293Z,100610.19
2023-02-16T08:23:31.869Z,100624.38
2023-02-16T08:26:01.492Z,100621.00
2023-02-16T08:28:29.119Z,100632.66
2023-02-16T08:30:56.366Z,100636.59
2023-02-16T08:33:23.316Z,100642.97
2023-02-16T08:35:50.449Z,100641.22
2023-02-16T08:38:17.563Z,100652.16
2023-02-16T08:40:49.580Z,100649.84
2023-02-16T08:43:16.733Z,100651.38
2023-02-16T08:45:47.985Z,100647.50
2023-02-16T08:48:15.457Z,100642.78
2023-02-16T08:50:53.628Z,100644.03
2023-02-16T08:53:23.706Z,100634.63
2023-02-16T08:56:03.822Z,100632.81
2023-02-16T08:58:32.193Z,100637.59
2023-02-16T09:00:59.090Z,100633.25
2023-02-16T09:03:26.029Z,100627.06
2023-02-16T09:05:53.724Z,100631.69
2023-02-16T09:08:20.668Z,100623.13
2023-02-16T09:10:47.482Z,100636.47
2023-02-16T09:13:15.212Z,100641.25
2023-02-16T09:15:43.649Z,100638.91
2023-02-16T09:18:14.640Z,100635.19
2023-02-16T09:20:46.270Z,100643.13
2023-02-16T09:23:13.989Z,100645.69
2023-02-16T09:25:42.309Z,100650.75
2023-02-16T09:28:10.953Z,100658.84
2023-02-16T09:30:39.307Z,100659.72
2023-02-16T09:33:06.720Z,100663.25
2023-02-16T09:35:33.550Z,100666.50
2023-02-16T09:38:00.463Z,100660.59
2023-02-16T09:40:27.566Z,100672.44
2023-02-16T09:43:01.743Z,100675.13
2023-02-16T09:45:29.952Z,100679.22
2023-02-16T09:47:59.475Z,100671.63
2023-02-16T09:50:53.791Z,100672.16
2023-02-16T09:53:28.943Z,100664.06
2023-02-16T09:56:09.057Z,100660.72
2023-02-16T09:59:03.488Z,100660.78
2023-02-16T10:01:36.755Z,100664.50
2023-02-16T10:04:39.171Z,100673.47
2023-02-16T10:07:40.616Z,100664.53
2023-02-16T10:10:11.976Z,100670.13
2023-02-16T10:12:46.969Z,100668.44
2023-02-16T10:15:23.804Z,100669.13
2023-02-16T10:18:03.534Z,100668.97
2023-02-16T10:20:40.870Z,100673.38
2023-02-16T10:23:29.979Z,100674.41
2023-02-16T10:26:08.983Z,100688.28
2023-02-16T10:28:55.541Z,100696.09
2023-02-16T10:31:28.350Z,100693.59
2023-02-16T10:34:25.331Z,100692.25
2023-02-16T10:37:23.081Z,100694.47
2023-02-16T10:39:52.842Z,100683.31
2023-02-16T10:42:37.608Z,100687.00
2023-02-16T10:45:52.462Z,100690.06
2023-02-16T10:48:23.771Z,100687.34
2023-02-16T10:51:12.851Z,100689.72
2023-02-16T10:53:46.934Z,100684.81
2023-02-16T10:56:27.534Z,100668.06
2023-02-16T10:58:54.515Z,100656.53
2023-02-16T11:01:37.343Z,100667.03
2023-02-16T11:04:05.121Z,100654.13
2023-02-16T11:06:31.966Z,100648.88
2023-02-16T11:09:01.880Z,100656.97
2023-02-16T11:11:39.418Z,100662.06
2023-02-16T11:14:30.622Z,100663.25
2023-02-16T11:17:16.642Z,100666.59
2023-02-16T11:20:05.838Z,100667.41
2023-02-16T11:22:39.940Z,100663.44
2023-02-16T11:25:27.265Z,100660.38
2023-02-16T11:28:05.520Z,100666.31
2023-02-16T11:30:39.770Z,100672.91
2023-02-16T11:33:23.780Z,100680.00
2023-02-16T11:35:50.945Z,100671.50
2023-02-16T11:39:17.544Z,100674.91
2023-02-16T11:42:05.438Z,100690.28
2023-02-16T11:44:44.604Z,100677.75
2023-02-16T11:47:32.698Z,100679.75
2023-02-16T11:50:22.825Z,100675.47
2023-02-16T11:52:54.409Z,100682.25
2023-02-16T11:55:36.186Z,100683.56
2023-02-16T11:58:25.499Z,100684.06
2023-02-16T12:01:23.466Z,100695.75
2023-02-16T12:04:08.408Z,100692.03
2023-02-16T12:07:15.584Z,100698.78
2023-02-16T12:09:53.927Z,100700.13
2023-02-16T12:13:03.127Z,100691.81
2023-02-16T12:15:45.688Z,100695.97
2023-02-16T12:18:28.293Z,100696.69
2023-02-16T12:21:42.221Z,100688.34
2023-02-16T12:24:36.442Z,100689.84
2023-02-16T12:27:15.922Z,100697.16
2023-02-16T12:30:04.296Z,100707.16
2023-02-16T12:32:48.178Z,100693.63
2023-02-16T12:35:39.205Z,100693.25
2023-02-16T12:38:17.946Z,100695.31
2023-02-16T12:41:03.829Z,100690.59
2023-02-16T12:43:34.500Z,100693.97
2023-02-16T12:46:24.006Z,100695.34
2023-02-16T12:48:58.993Z,100692.63
2023-02-16T12:51:46.133Z,100699.09
2023-02-16T12:54:29.581Z,100688.91
2023-02-16T12:57:12.061Z,100700.78
2023-02-16T12:59:49.515Z,100691.25
2023-02-16T13:02:43.854Z,100688.91
2023-02-16T13:05:18.664Z,100683.59
2023-02-16T13:07:48.034Z,100679.84
2023-02-16T13:10:46.970Z,100680.69
2023-02-16T13:13:24.426Z,100695.66
2023-02-16T13:16:03.635Z,100690.59
2023-02-16T13:18:38.447Z,100693.25
2023-02-16T13:21:39.690Z,100694.63
2023-02-16T13:24:45.565Z,100689.50
2023-02-16T13:27:43.001Z,100684.56
2023-02-16T13:30:44.064Z,100675.00
2023-02-16T13:33:37.804Z,100665.94
2023-02-16T13:36:24.910Z,100684.22
2023-02-16T13:39:41.761Z,100677.34
2023-02-16T13:42:32.473Z,100678.28
2023-02-16T13:45:04.339Z,100679.22
2023-02-16T13:47:38.096Z,100671.38
2023-02-16T13:50:21.090Z,100667.91
2023-02-16T13:52:50.005Z,100659.22
2023-02-16T13:55:37.551Z,100663.13
2023-02-16T13:58:29.155Z,100671.94
2023-02-16T14:00:56.420Z,100671.94
2023-02-16T14:03:23.186Z,100667.56
2023-02-16T14:06:27.030Z,100667.06
2023-02-16T14:09:53.703Z,100665.50
2023-02-16T14:12:32.290Z,100664.44
2023-02-16T14:15:04.838Z,100659.66
2023-02-16T14:17:36.575Z,100665.97
2023-02-16T14:20:09.362Z,100670.47
2023-02-16T14:22:49.411Z,100661.25
2023-02-16T14:25:22.560Z,100653.75
2023-02-16T14:28:01.733Z,100655.28
2023-02-16T14:30:54.047Z,100648.59
2023-02-16T14:33:41.131Z,100658.56
2023-02-16T14:36:16.885Z,100656.97
2023-02-16T14:38:52.218Z,100651.63
2023-02-16T14:41:36.403Z,100655.19
2023-02-16T14:44:06.654Z,100663.50
2023-02-16T14:46:45.352Z,100660.59
2023-02-16T14:49:39.705Z,100669.25
2023-02-16T14:52:24.491Z,100664.81
2023-02-16T14:55:26.500Z,100653.94
2023-02-16T14:58:13.483Z,100663.63
2023-02-16T15:01:11.200Z,100662.56
2023-02-16T15:03:50.607Z,100662.41
2023-02-16T15:06:40.941Z,100658.44
2023-02-16T15:09:28.761Z,100659.03
2023-02-16T15:12:20.810Z,100657.59
2023-02-16T15:14:50.885Z,100667.47
2023-02-16T15:17:40.593Z,100656.84
2023-02-16T15:20:35.611Z,100652.31
2023-02-16T15:23:34.985Z,100643.41
2023-02-16T15:26:16.781Z,100645.69
2023-02-16T15:28:55.271Z,100650.75
2023-02-16T15:31:31.073Z,100646.69
2023-02-16T15:34:14.778Z,100641.63
2023-02-16T15:36:45.550Z,100641.28
2023-02-16T15:39:37.911Z,100648.31
2023-02-16T15:42:21.645Z,100647.38
2023-02-16T15:44:48.954Z,100647.78
2023-02-16T15:47:22.950Z,100643.75
2023-02-16T15:49:50.654Z,100644.47
2023-02-16T15:52:34.728Z,100655.81
2023-02-16T15:55:06.456Z,100654.16
2023-02-16T15:57:38.569Z,100653.56
2023-02-16T16:00:23.309Z,100666.91
2023-02-16T16:02:54.575Z,100666.50
2023-02-16T16:05:35.622Z,100672.69
2023-02-16T16:08:03.741Z,100663.03
2023-02-16T16:10:39.881Z,100660.88
2023-02-16T16:13:13.467Z,100665.34
2023-02-16T16:15:48.626Z,100653.28
2023-02-16T16:18:34.554Z,100654.47
2023-02-16T16:21:02.930Z,100654.47
2023-02-16T16:23:30.769Z,100657.56
2023-02-16T16:25:58.613Z,100654.38
2023-02-16T16:28:28.420Z,100663.94
2023-02-16T16:31:35.376Z,100663.81
2023-02-16T16:34:02.148Z,100661.47
2023-02-16T16:36:34.101Z,100666.13
2023-02-16T16:39:19.234Z,100673.13
2023-02-16T16:42:08.244Z,100673.88
2023-02-16T16:44:42.568Z,100683.19
2023-02-16T16:47:52.483Z,100679.03
2023-02-16T16:50:39.643Z,100686.03
2023-02-16T16:53:53.984Z,100691.31
2023-02-16T16:56:22.150Z,100685.78
2023-02-16T16:58:54.101Z,100683.22
2023-02-16T17:01:21.721Z,100692.75
2023-02-16T17:03:48.623Z,100681.56
2023-02-16T17:06:17.681Z,100682.59
2023-02-16T17:08:46.025Z,100692.50
2023-02-16T17:11:29.220Z,100696.94
2023-02-16T17:13:58.411Z,100689.31
2023-02-16T17:16:30.107Z,100689.53
2023-02-16T17:18:57.213Z,100682.75
2023-02-16T17:21:24.079Z,100689.56
2023-02-16T17:23:53.394Z,100678.59
2023-02-16T17:26:22.273Z,100677.25
2023-02-16T17:28:49.984Z,100667.59
2023-02-16T17:31:17.416Z,100666.91
2023-02-16T17:33:45.038Z,100681.19
2023-02-16T17:36:15.849Z,100676.09
2023-02-16T17:38:43.900Z,100674.94
2023-02-16T17:41:24.286Z,100678.50
2023-02-16T17:43:51.882Z,100692.06
2023-02-16T17:46:21.669Z,100698.84
2023-02-16T17:48:55.464Z,100710.03
2023-02-16T17:51:25.329Z,100704.13
2023-02-16T17:53:52.738Z,100703.09
2023-02-16T17:56:23.382Z,100705.31
2023-02-16T17:58:51.213Z,100691.09
2023-02-16T18:01:19.489Z,100688.53
2023-02-16T18:03:46.588Z,100690.25
2023-02-16T18:06:20.388Z,100701.59
2023-02-16T18:08:47.834Z,100710.88
2023-02-16T18:11:14.789Z,100710.22
2023-02-16T18:13:41.714Z,100715.16
2023-02-16T18:16:13.332Z,100722.94
2023-02-16T18:18:40.156Z,100716.50
2023-02-16T18:21:07.791Z,100722.59
2023-02-16T18:23:34.649Z,100721.91
2023-02-16T18:26:01.445Z,100725.28
2023-02-16T18:28:31.552Z,100698.88
2023-02-16T18:30:59.530Z,100711.75
2023-02-16T18:33:27.855Z,100713.47
2023-02-16T18:35:57.659Z,100696.88
2023-02-16T18:38:25.236Z,100697.53
2023-02-16T18:40:54.181Z,100695.84
2023-02-16T18:43:21.822Z,100708.22
2023-02-16T18:45:48.984Z,100705.50
2023-02-16T18:48:15.991Z,100700.91
2023-02-16T18:50:43.041Z,100695.19
2023-02-16T18:53:09.984Z,100701.59
2023-02-16T18:55:37.318Z,100703.63
2023-02-16T18:58:08.087Z,100717.50
2023-02-16T19:00:37.058Z,100714.13
2023-02-16T19:03:04.409Z,100703.28
2023-02-16T19:05:32.247Z,100704.31
2023-02-16T19:07:59.122Z,100696.69
2023-02-16T19:10:26.027Z,100693.47
2023-02-16T19:12:53.002Z,100688.03
2023-02-16T19:15:20.221Z,100702.28
2023-02-16T19:17:47.309Z,100702.63
2023-02-16T19:20:18.422Z,100707.84
2023-02-16T19:22:46.770Z,100714.31
2023-02-16T19:25:15.492Z,100724.31
2023-02-16T19:27:44.687Z,100717.50
2023-02-16T19:30:13.446Z,100722.94
2023-02-16T19:32:42.541Z,100713.44
2023-02-16T19:35:12.082Z,100706.19
2023-02-16T19:37:39.548Z,100709.75
2023-02-16T19:40:08.887Z,100719.88
2023-02-16T19:42:37.392Z,100718.03
2023-02-16T19:45:05.238Z,100726.00
2023-02-16T19:47:32.191Z,100722.94
2023-02-16T19:49:59.076Z,100712.78
2023-02-16T19:52:26.209Z,100705.50
2023-02-16T19:54:53.046Z,100708.38
2023-02-16T19:57:20.757Z,100705.31
2023-02-16T19:59:47.560Z,100712.44
2023-02-16T20:02:15.685Z,100708.03
2023-02-16T20:04:44.393Z,100718.88
2023-02-16T20:07:11.354Z,100725.28
2023-02-16T20:09:38.572Z,100717.88
2023-02-16T20:12:06.357Z,100717.84
2023-02-16T20:14:33.228Z,100720.38
2023-02-16T20:17:00.098Z,100718.72
2023-02-16T20:19:26.969Z,100710.75
2023-02-16T20:21:55.311Z,100718.53
2023-02-16T20:24:22.280Z,100713.13
2023-02-16T20:26:51.430Z,100723.28
2023-02-16T20:29:18.281Z,100721.75
2023-02-16T20:31:55.104Z,100718.53
2023-02-16T20:34:23.128Z,100717.16
2023-02-16T20:36:50.508Z,100723.63
2023-02-16T20:39:17.714Z,100717.00
2023-02-16T20:41:44.895Z,100714.47
2023-02-16T20:44:12.309Z,100708.72
2023-02-16T20:46:40.218Z,100705.31
2023-02-16T20:49:08.674Z,100709.03
2023-02-16T20:51:36.816Z,100712.94
2023-02-16T20:54:05.076Z,100716.69
2023-02-16T20:56:31.936Z,100717.84
2023-02-16T20:58:59.140Z,100721.75
2023-02-16T21:01:51.126Z,100720.41
2023-02-16T21:04:20.550Z,100723.94
2023-02-16T21:06:47.918Z,100732.75
2023-02-16T21:09:15.838Z,100732.75
2023-02-16T21:11:43.930Z,100741.56
2023-02-16T21:14:12.257Z,100734.47
2023-02-16T21:16:41.191Z,100735.13
2023-02-16T21:19:20.981Z,100732.44
2023-02-16T21:21:49.354Z,100730.72
2023-02-16T21:24:16.207Z,100720.06
2023-02-16T21:26:43.087Z,100711.44
2023-02-16T21:29:09.944Z,100719.88
2023-02-16T21:31:37.168Z,100713.28
2023-02-16T21:34:04.027Z,100708.03
2023-02-16T21:36:30.912Z,100714.81
2023-02-16T21:38:58.040Z,100709.22
2023-02-16T21:41:29.376Z,100707.38
2023-02-16T21:44:05.129Z,100701.94
2023-02-16T21:46:44.845Z,100707.38
2023-02-16T21:49:20.484Z,100699.56
2023-02-16T21:51:48.553Z,100701.09
2023-02-16T21:54:39.326Z,100723.63
2023-02-16T21:57:06.494Z,100720.59
2023-02-16T21:59:34.077Z,100719.56
2023-02-16T22:02:01.156Z,100724.13
2023-02-16T22:04:28.013Z,100713.28
2023-02-16T22:06:56.159Z,100719.56
2023-02-16T22:09:23.968Z,100721.25
2023-02-16T22:11:51.945Z,100736.16
2023-02-16T22:14:19.825Z,100727.50
2023-02-16T22:16:47.870Z,100724.63
2023-02-16T22:19:18.237Z,100715.13
2023-02-16T22:21:48.117Z,100721.94
2023-02-16T22:24:18.005Z,100720.91
2023-02-16T22:26:47.337Z,100714.63
2023-02-16T22:29:15.175Z,100711.75
2023-02-16T22:31:47.998Z,100705.47
2023-02-16T22:34:18.925Z,100699.03
2023-02-16T22:36:46.100Z,100696.00
2023-02-16T22:39:15.460Z,100695.13
2023-02-16T22:41:42.518Z,100700.56
2023-02-16T22:44:11.823Z,100703.47
2023-02-16T22:46:39.081Z,100701.59
2023-02-16T22:49:06.110Z,100705.97
2023-02-16T22:51:32.983Z,100703.09
2023-02-16T22:54:02.070Z,100703.78
2023-02-16T22:56:30.326Z,100701.06
2023-02-16T22:58:59.088Z,100692.75
2023-02-16T23:01:29.468Z,100694.81
2023-02-16T23:03:58.273Z,100686.63
2023-02-16T23:06:33.401Z,100686.63
2023-02-16T23:09:03.238Z,100681.59
2023-02-16T23:11:30.624Z,100678.84
2023-02-16T23:13:57.623Z,100679.50
2023-02-16T23:16:27.390Z,100679.84
2023-02-16T23:18:59.443Z,100669.00
2023-02-16T23:21:33.005Z,100668.28
2023-02-16T23:24:00.619Z,100664.22
2023-02-16T23:26:31.343Z,100667.59
2023-02-16T23:29:01.553Z,100673.69
2023-02-16T23:31:33.403Z,100666.03
2023-02-16T23:34:02.608Z,100681.81
2023-02-16T23:36:31.449Z,100678.94
2023-02-16T23:39:04.317Z,100675.56
2023-02-16T23:41:31.123Z,100685.84
2023-02-16T23:44:00.029Z,100679.22
2023-02-16T23:46:28.178Z,100680.09
2023-02-16T23:48:55.320Z,100685.66
2023-02-16T23:51:22.530Z,100674.63
2023-02-16T23:53:49.644Z,100673.63
2023-02-16T23:56:26.581Z,100679.72
2023-02-16T23:58:58.748Z,100677.66
